Time;durP1;ratioP1;P1;durP2;ratioP2;P2;SDS_P1;SDS_P2;PMS_P1;PMS_P2;Temp;Humidity;BMP_temperature;BMP_pressure;BME280_temperature;BME280_humidity;BME280_pressure;Samples;Min_cycle;Max_cycle;Signal;HPM_P1;HPM_P2
2023/07/12 00:00:31;;;;;;;1.75;0.80;;;19.40;99.90;;;;;;5049113;28;19916;-50
2023/07/12 00:02:57;;;;;;;2.72;1.10;;;19.40;99.90;;;;;;5049280;28;20037;-49
2023/07/12 00:05:27;;;;;;;3.10;1.00;;;19.50;99.90;;;;;;5047503;28;20091;-52
2023/07/12 00:07:53;;;;;;;1.10;0.82;;;19.50;99.90;;;;;;5048738;28;20044;-50
2023/07/12 00:10:26;;;;;;;1.88;0.88;;;19.50;99.90;;;;;;5048489;28;20041;-50
2023/07/12 00:12:52;;;;;;;3.35;1.15;;;19.60;99.90;;;;;;5048792;28;20041;-50
2023/07/12 00:15:21;;;;;;;1.90;0.93;;;19.60;99.90;;;;;;5048312;28;20044;-51
2023/07/12 00:17:48;;;;;;;2.55;0.80;;;19.70;99.90;;;;;;5048739;28;20068;-50
2023/07/12 00:20:20;;;;;;;2.55;1.42;;;19.60;99.90;;;;;;5048563;28;20088;-50
2023/07/12 00:22:46;;;;;;;3.38;1.38;;;19.60;99.90;;;;;;5048575;28;20037;-51
2023/07/12 00:25:12;;;;;;;4.63;1.30;;;19.50;99.90;;;;;;5047978;28;20060;-50
2023/07/12 00:27:38;;;;;;;5.22;0.85;;;19.50;99.90;;;;;;5048866;28;20033;-50
2023/07/12 00:30:19;;;;;;;1.98;1.00;;;19.40;99.90;;;;;;5048738;28;20182;-51
2023/07/12 00:32:51;;;;;;;2.85;1.00;;;19.40;99.90;;;;;;5048457;28;20575;-51
2023/07/12 00:35:20;;;;;;;1.75;0.90;;;19.40;99.90;;;;;;5046045;28;20040;-50
2023/07/12 00:37:45;;;;;;;3.22;1.25;;;19.30;99.90;;;;;;5048402;28;20117;-50
2023/07/12 00:40:38;;;;;;;1.20;0.82;;;19.20;99.90;;;;;;5048694;28;20562;-49
2023/07/12 00:43:26;;;;;;;1.70;1.10;;;19.20;99.90;;;;;;5048754;28;20037;-50
2023/07/12 00:45:52;;;;;;;1.85;1.33;;;19.00;99.90;;;;;;5047736;28;20040;-50
2023/07/12 00:48:19;;;;;;;1.52;1.15;;;19.00;99.90;;;;;;5048769;28;20044;-50
2023/07/12 00:50:47;;;;;;;2.67;1.20;;;18.90;99.90;;;;;;5048526;28;20123;-52
2023/07/12 00:53:19;;;;;;;4.30;1.25;;;18.90;99.90;;;;;;5046340;28;20446;-50
2023/07/12 00:55:53;;;;;;;3.00;1.48;;;18.80;99.90;;;;;;5046936;28;20032;-50
2023/07/12 00:58:19;;;;;;;2.72;1.30;;;18.80;99.90;;;;;;5047785;28;20079;-50
2023/07/12 01:00:46;;;;;;;1.48;1.38;;;18.80;99.90;;;;;;5048862;28;20037;-49
2023/07/12 01:03:13;;;;;;;1.77;1.15;;;18.70;99.90;;;;;;5048600;28;20444;-50
2023/07/12 01:05:42;;;;;;;1.63;1.10;;;18.70;99.90;;;;;;5049312;28;20060;-50
2023/07/12 01:08:08;;;;;;;3.85;1.67;;;18.70;99.90;;;;;;5050175;28;20025;-50
2023/07/12 01:10:34;;;;;;;2.17;1.50;;;18.70;99.90;;;;;;5052151;28;20044;-50
2023/07/12 01:12:59;;;;;;;1.52;1.30;;;18.70;99.90;;;;;;5051677;28;20029;-49
2023/07/12 01:15:25;;;;;;;;;;;18.70;99.90;;;;;;5052145;28;20555;-50
2023/07/12 01:17:51;;;;;;;3.03;1.20;;;18.80;99.90;;;;;;5051730;28;20035;-51
2023/07/12 01:20:17;;;;;;;;;;;18.80;99.90;;;;;;5051667;28;20029;-50
2023/07/12 01:22:42;;;;;;;5.93;1.98;;;18.80;99.90;;;;;;5051942;28;20099;-49
2023/07/12 01:25:08;;;;;;;2.92;1.13;;;18.80;99.90;;;;;;5051506;28;20637;-50
2023/07/12 01:27:33;;;;;;;;;;;18.80;99.90;;;;;;5051806;28;20039;-50
2023/07/12 01:29:59;;;;;;;2.50;1.80;;;18.80;99.90;;;;;;5051868;28;20293;-49
2023/07/12 01:32:26;;;;;;;1.60;1.38;;;18.80;99.90;;;;;;5051719;28;20033;-51
2023/07/12 01:34:51;;;;;;;1.65;1.02;;;18.80;99.90;;;;;;5051279;28;20413;-51
2023/07/12 01:37:17;;;;;;;3.58;1.50;;;18.80;99.90;;;;;;5051683;28;20120;-50
2023/07/12 01:39:42;;;;;;;;;;;18.90;99.90;;;;;;5051878;28;20060;-52
2023/07/12 01:42:08;;;;;;;2.85;1.10;;;18.90;99.90;;;;;;5051328;28;19921;-50
2023/07/12 01:44:34;;;;;;;;;;;18.80;99.90;;;;;;5052001;28;21379;-52
2023/07/12 01:46:59;;;;;;;3.75;1.10;;;18.80;99.90;;;;;;5051176;28;20396;-49
2023/07/12 01:49:25;;;;;;;2.80;1.35;;;18.80;99.90;;;;;;5051492;28;20596;-52
2023/07/12 01:51:50;;;;;;;2.50;0.88;;;18.80;99.90;;;;;;5051287;28;20029;-51
2023/07/12 01:54:16;;;;;;;;;;;18.80;99.90;;;;;;5051957;28;20033;-50
2023/07/12 01:56:42;;;;;;;3.47;1.65;;;18.80;99.90;;;;;;5050408;28;19917;-49
2023/07/12 01:59:07;;;;;;;;;;;18.80;99.90;;;;;;5051676;28;20040;-49
2023/07/12 02:01:33;;;;;;;5.65;1.48;;;18.80;99.90;;;;;;5051174;28;19934;-53
2023/07/12 02:03:58;;;;;;;2.63;1.30;;;18.80;99.90;;;;;;5050992;28;20033;-50
2023/07/12 02:06:24;;;;;;;5.03;1.65;;;18.70;99.90;;;;;;5051035;28;20032;-51
2023/07/12 02:08:49;;;;;;;;;;;18.70;99.90;;;;;;5051734;28;20514;-50
2023/07/12 02:11:15;;;;;;;2.22;1.33;;;18.70;99.90;;;;;;5050231;28;20007;-52
2023/07/12 02:13:41;;;;;;;;;;;18.70;99.90;;;;;;5050423;28;20437;-53
2023/07/12 02:16:06;;;;;;;3.15;1.75;;;18.70;99.90;;;;;;5049751;28;20356;-50
2023/07/12 02:18:32;;;;;;;;;;;18.70;99.90;;;;;;5051190;28;20036;-50
2023/07/12 02:20:57;;;;;;;5.20;2.40;;;18.70;99.90;;;;;;5050819;28;19920;-49
2023/07/12 02:23:23;;;;;;;;;;;18.70;99.90;;;;;;5051184;28;20064;-50
2023/07/12 02:25:48;;;;;;;3.80;2.58;;;18.60;99.90;;;;;;5049768;28;20348;-50
2023/07/12 02:28:14;;;;;;;2.75;2.38;;;18.60;99.90;;;;;;5050806;28;21277;-52
2023/07/12 02:30:42;;;;;;;4.47;2.50;;;18.60;99.90;;;;;;5050839;28;20557;-52
2023/07/12 02:33:08;;;;;;;2.78;2.05;;;18.50;99.90;;;;;;5050656;28;20056;-50
2023/07/12 02:35:33;;;;;;;5.25;2.80;;;18.50;99.90;;;;;;5050120;28;20465;-52
2023/07/12 02:38:00;;;;;;;5.28;3.00;;;18.50;99.90;;;;;;5050333;28;20033;-49
2023/07/12 02:40:27;;;;;;;9.85;3.65;;;18.50;99.90;;;;;;5049864;28;20497;-51
2023/07/12 02:42:53;;;;;;;5.55;3.03;;;18.40;99.90;;;;;;5050292;28;20086;-50
2023/07/12 02:45:19;;;;;;;3.00;2.47;;;18.40;99.90;;;;;;5050260;28;20407;-50
2023/07/12 02:47:44;;;;;;;4.40;2.60;;;18.40;99.90;;;;;;5050226;28;20036;-50
2023/07/12 02:50:10;;;;;;;;;;;18.40;99.90;;;;;;5050760;28;20053;-51
2023/07/12 02:52:36;;;;;;;6.20;2.83;;;18.40;99.90;;;;;;5050189;28;19931;-50
2023/07/12 02:55:01;;;;;;;5.28;2.92;;;18.40;99.90;;;;;;5046768;28;20025;-49
2023/07/12 02:57:27;;;;;;;7.65;3.75;;;18.40;99.90;;;;;;5050252;28;20129;-49
2023/07/12 02:59:53;;;;;;;7.82;3.20;;;18.40;99.90;;;;;;5050301;28;20033;-49
2023/07/12 03:02:19;;;;;;;9.10;3.30;;;18.30;99.90;;;;;;5049943;28;20082;-50
2023/07/12 03:04:45;;;;;;;8.77;2.88;;;18.30;99.90;;;;;;5049874;28;20123;-50
2023/07/12 03:07:10;;;;;;;6.88;3.03;;;18.30;99.90;;;;;;5049587;28;20045;-52
2023/07/12 03:09:36;;;;;;;4.43;2.22;;;18.30;99.90;;;;;;5049513;28;20029;-52
2023/07/12 03:12:02;;;;;;;5.68;2.97;;;18.30;99.90;;;;;;5049668;28;20037;-50
2023/07/12 03:14:28;;;;;;;7.88;1.90;;;18.30;99.90;;;;;;5050036;28;20217;-49
2023/07/12 03:16:54;;;;;;;7.82;2.50;;;18.20;99.90;;;;;;5050108;28;20255;-49
2023/07/12 03:19:21;;;;;;;9.55;2.92;;;18.20;99.90;;;;;;5049649;28;20037;-50
2023/07/12 03:21:46;;;;;;;5.43;2.63;;;18.20;99.90;;;;;;5049560;28;20037;-49
2023/07/12 03:24:12;;;;;;;8.35;2.88;;;18.20;99.90;;;;;;5048972;28;20055;-50
2023/07/12 03:26:37;;;;;;;8.07;2.25;;;18.20;99.90;;;;;;5049441;28;20025;-50
2023/07/12 03:29:04;;;;;;;6.70;2.13;;;18.20;99.90;;;;;;5049073;28;20060;-50
2023/07/12 03:31:30;;;;;;;4.18;2.10;;;18.10;99.90;;;;;;5049384;28;20064;-50
2023/07/12 03:33:57;;;;;;;;;;;18.00;99.90;;;;;;5049962;28;20033;-49
2023/07/12 03:36:25;;;;;;;7.10;2.88;;;18.00;99.90;;;;;;5047436;28;19921;-50
2023/07/12 03:38:52;;;;;;;10.20;3.28;;;18.00;99.90;;;;;;5048595;28;20417;-49
2023/07/12 03:41:20;;;;;;;7.10;4.05;;;18.00;99.90;;;;;;5049288;28;20044;-52
2023/07/12 03:43:46;;;;;;;9.10;3.15;;;18.00;99.90;;;;;;5047121;28;20131;-51
2023/07/12 03:46:12;;;;;;;7.82;2.72;;;18.00;99.90;;;;;;5048877;28;20033;-51
2023/07/12 03:48:37;;;;;;;8.90;3.22;;;17.90;99.90;;;;;;5049150;28;20044;-49
2023/07/12 03:51:03;;;;;;;10.25;3.13;;;17.90;99.90;;;;;;5048939;28;20226;-50
2023/07/12 03:53:29;;;;;;;7.75;3.33;;;17.90;99.90;;;;;;5048556;28;20063;-50
2023/07/12 03:55:58;;;;;;;5.00;3.47;;;17.80;99.90;;;;;;5046216;28;20383;-51
2023/07/12 03:58:27;;;;;;;5.90;3.55;;;17.70;99.90;;;;;;5047758;28;20072;-49
2023/07/12 04:00:52;;;;;;;6.63;3.00;;;17.70;99.90;;;;;;5049012;28;20064;-49
2023/07/12 04:03:19;;;;;;;8.35;3.17;;;17.60;99.90;;;;;;5049562;28;20068;-51
2023/07/12 04:05:49;;;;;;;12.43;4.03;;;17.60;99.90;;;;;;5048416;28;20490;-50
2023/07/12 04:08:15;;;;;;;8.30;4.40;;;17.60;99.90;;;;;;5048793;28;20457;-53
2023/07/12 04:10:40;;;;;;;7.70;3.75;;;17.50;99.90;;;;;;5049178;28;20033;-49
2023/07/12 04:13:06;;;;;;;6.85;3.22;;;17.50;99.90;;;;;;5048757;28;20068;-49
2023/07/12 04:15:34;;;;;;;5.45;3.22;;;17.50;99.90;;;;;;5048212;28;20033;-49
2023/07/12 04:17:59;;;;;;;9.18;3.63;;;17.50;99.90;;;;;;5048226;28;20083;-54
2023/07/12 04:20:25;;;;;;;5.45;3.60;;;17.50;99.90;;;;;;5048504;28;20044;-49
2023/07/12 04:22:52;;;;;;;10.23;4.03;;;17.50;99.90;;;;;;5048634;28;20041;-49
2023/07/12 04:25:18;;;;;;;8.93;4.68;;;17.50;99.90;;;;;;5048444;28;20186;-52
2023/07/12 04:27:44;;;;;;;7.10;3.75;;;17.50;99.90;;;;;;5046026;28;20044;-52
2023/07/12 04:30:12;;;;;;;12.52;4.43;;;17.50;99.90;;;;;;5048890;28;20120;-52
2023/07/12 04:32:37;;;;;;;7.68;4.07;;;17.50;99.90;;;;;;5048807;28;20033;-49
2023/07/12 04:35:03;;;;;;;7.43;3.72;;;17.50;99.90;;;;;;5048404;28;20082;-50
2023/07/12 04:37:29;;;;;;;;;;;17.50;99.90;;;;;;5048896;28;20116;-50
2023/07/12 04:39:55;;;;;;;8.07;4.07;;;17.50;99.90;;;;;;5049239;28;19928;-50
2023/07/12 04:42:21;;;;;;;12.25;3.92;;;17.40;99.90;;;;;;5053007;28;20029;-51
2023/07/12 04:44:46;;;;;;;8.88;3.88;;;17.40;99.90;;;;;;5052340;28;20048;-50
2023/07/12 04:47:15;;;;;;;8.45;4.32;;;17.40;99.90;;;;;;5052256;28;20044;-50
2023/07/12 04:49:40;;;;;;;7.85;4.30;;;17.40;99.90;;;;;;5052412;28;20040;-49
2023/07/12 04:52:07;;;;;;;7.32;4.05;;;17.40;99.90;;;;;;5052557;28;20045;-51
2023/07/12 04:54:34;;;;;;;6.18;3.60;;;17.40;99.90;;;;;;5052233;28;20498;-51
2023/07/12 04:57:00;;;;;;;8.05;3.80;;;17.40;99.90;;;;;;5052555;28;20087;-50
2023/07/12 04:59:25;;;;;;;14.27;3.65;;;17.40;99.90;;;;;;5052304;28;20041;-49
2023/07/12 05:01:51;;;;;;;6.70;3.80;;;17.40;99.90;;;;;;5052284;28;20041;-49
2023/07/12 05:04:17;;;;;;;10.32;4.00;;;17.40;99.90;;;;;;5051102;28;20456;-49
2023/07/12 05:06:44;;;;;;;10.63;4.13;;;17.40;99.90;;;;;;5052375;28;20036;-49
2023/07/12 05:09:10;;;;;;;;;;;17.40;99.90;;;;;;5052761;28;20045;-50
2023/07/12 05:11:36;;;;;;;10.63;4.72;;;17.40;99.90;;;;;;5052302;28;20332;-50
2023/07/12 05:14:01;;;;;;;10.55;5.38;;;17.40;99.90;;;;;;5051641;28;20090;-49
2023/07/12 05:16:27;;;;;;;7.80;4.38;;;17.40;99.90;;;;;;5051893;28;20037;-49
2023/07/12 05:18:52;;;;;;;13.52;6.03;;;17.40;99.90;;;;;;5051679;28;20497;-52
2023/07/12 05:21:20;;;;;;;13.90;5.22;;;17.40;99.90;;;;;;5052264;28;20052;-49
2023/07/12 05:23:46;;;;;;;11.00;5.32;;;17.40;99.90;;;;;;5051818;28;20482;-49
2023/07/12 05:26:11;;;;;;;7.68;5.38;;;17.40;99.90;;;;;;5051537;28;20045;-51
2023/07/12 05:28:37;;;;;;;8.43;5.15;;;17.50;99.90;;;;;;5051923;28;20482;-51
2023/07/12 05:31:11;;;;;;;16.00;5.63;;;17.50;99.90;;;;;;5051548;28;20041;-52
2023/07/12 05:33:36;;;;;;;10.55;5.70;;;17.60;99.90;;;;;;5051916;28;20097;-51
2023/07/12 05:36:03;;;;;;;9.63;5.90;;;17.70;99.90;;;;;;5049803;28;20504;-50
2023/07/12 05:38:29;;;;;;;10.88;5.97;;;17.70;99.90;;;;;;5051243;28;20218;-49
2023/07/12 05:40:59;;;;;;;12.05;5.57;;;17.70;99.90;;;;;;5052075;28;20117;-52
2023/07/12 05:43:25;;;;;;;15.23;6.90;;;17.70;99.90;;;;;;5051348;28;20041;-49
2023/07/12 05:45:51;;;;;;;13.88;6.63;;;17.70;99.90;;;;;;5049197;28;20033;-49
2023/07/12 05:48:17;;;;;;;17.27;7.50;;;17.70;99.90;;;;;;5048949;28;20076;-51
2023/07/12 05:50:43;;;;;;;15.38;7.07;;;17.70;99.90;;;;;;5048608;28;20606;-49
2023/07/12 05:53:08;;;;;;;16.70;7.93;;;17.70;99.90;;;;;;5047018;28;20032;-50
2023/07/12 05:55:34;;;;;;;17.30;7.60;;;17.70;99.90;;;;;;5050484;28;20041;-50
2023/07/12 05:58:00;;;;;;;13.18;7.63;;;17.70;99.90;;;;;;5051091;28;20064;-49
2023/07/12 06:00:26;;;;;;;12.48;7.30;;;17.80;99.90;;;;;;5050624;28;20494;-49
2023/07/12 06:02:52;;;;;;;14.60;7.05;;;17.80;99.90;;;;;;5049294;28;20037;-49
2023/07/12 06:05:18;;;;;;;12.60;6.65;;;17.90;99.90;;;;;;5048520;28;20030;-49
2023/07/12 06:07:44;;;;;;;;;;;18.00;99.90;;;;;;5049470;28;20037;-49
2023/07/12 06:10:11;;;;;;;13.73;7.45;;;18.00;99.90;;;;;;5041586;28;20287;-49
2023/07/12 06:12:38;;;;;;;11.00;7.38;;;18.10;99.90;;;;;;5039996;28;20080;-52
2023/07/12 06:15:04;;;;;;;17.65;8.48;;;18.10;99.90;;;;;;5047144;28;20383;-52
2023/07/12 06:17:30;;;;;;;16.48;7.80;;;18.10;99.90;;;;;;5046669;28;20040;-51
2023/07/12 06:19:55;;;;;;;15.68;6.72;;;18.10;99.90;;;;;;5042121;28;20029;-53
2023/07/12 06:22:21;;;;;;;18.30;7.88;;;18.10;99.90;;;;;;5046604;28;20033;-49
2023/07/12 06:24:46;;;;;;;15.88;7.35;;;18.20;99.90;;;;;;5039814;28;20029;-53
2023/07/12 06:27:13;;;;;;;18.80;8.15;;;18.30;99.90;;;;;;5041102;28;20033;-50
2023/07/12 06:29:42;;;;;;;13.60;7.43;;;18.40;99.90;;;;;;5047500;28;20052;-49
2023/07/12 06:32:11;;;;;;;20.02;9.80;;;18.30;99.90;;;;;;5044622;28;20060;-53
2023/07/12 06:34:36;;;;;;;19.75;7.70;;;18.40;99.90;;;;;;5045594;28;20040;-50
2023/07/12 06:37:02;;;;;;;16.63;7.78;;;18.30;99.90;;;;;;5049398;28;20043;-52
2023/07/12 06:39:28;;;;;;;13.40;7.60;;;18.30;99.90;;;;;;5049133;28;20033;-52
2023/07/12 06:41:53;;;;;;;18.27;8.13;;;18.30;99.90;;;;;;5047097;28;20047;-52
2023/07/12 06:44:19;;;;;;;12.95;7.72;;;18.30;99.90;;;;;;5049232;28;20045;-50
2023/07/12 06:46:45;;;;;;;14.20;7.85;;;18.30;99.90;;;;;;5050251;28;20494;-50
2023/07/12 06:49:13;;;;;;;19.35;9.35;;;18.30;99.90;;;;;;5050191;28;20041;-50
2023/07/12 06:51:38;;;;;;;14.45;9.10;;;18.30;99.90;;;;;;5047007;28;20037;-54
2023/07/12 06:54:04;;;;;;;14.40;9.45;;;18.40;99.90;;;;;;5044051;28;20037;-52
2023/07/12 06:56:29;;;;;;;;;;;18.40;99.90;;;;;;5050357;28;20036;-52
2023/07/12 06:58:55;;;;;;;11.00;7.20;;;18.50;99.90;;;;;;5049588;28;19920;-49
2023/07/12 07:01:21;;;;;;;9.35;7.30;;;18.70;99.90;;;;;;5050295;28;20043;-50
2023/07/12 07:03:46;;;;;;;;;;;18.60;99.90;;;;;;5049704;28;20036;-50
2023/07/12 07:06:12;;;;;;;14.73;7.43;;;18.70;99.90;;;;;;5045808;28;19924;-51
2023/07/12 07:08:37;;;;;;;;;;;18.80;99.90;;;;;;5046974;28;20072;-49
2023/07/12 07:11:03;;;;;;;12.77;7.95;;;18.80;99.90;;;;;;5046057;28;20003;-50
2023/07/12 07:13:29;;;;;;;11.50;6.50;;;18.80;99.90;;;;;;5041662;28;20456;-49
2023/07/12 07:15:55;;;;;;;13.32;6.07;;;18.80;99.90;;;;;;5046006;28;20033;-51
2023/07/12 07:18:20;;;;;;;13.13;6.13;;;18.60;99.90;;;;;;5048849;28;20516;-51
2023/07/12 07:21:20;;;;;;;17.17;6.00;;;18.60;99.90;;;;;;5041534;28;21457;-51
2023/07/12 07:23:46;;;;;;;12.15;5.22;;;18.50;99.90;;;;;;5017798;28;20546;-52
2023/07/12 07:26:12;;;;;;;13.18;5.28;;;18.50;99.90;;;;;;5020823;28;20037;-56
2023/07/12 07:28:38;;;;;;;11.10;5.10;;;18.50;99.90;;;;;;5030772;28;20037;-51
2023/07/12 07:31:04;;;;;;;14.82;5.50;;;18.60;99.90;;;;;;5040460;28;20067;-49
2023/07/12 07:33:30;;;;;;;;;;;18.70;99.90;;;;;;5039643;28;20102;-50
2023/07/12 07:35:56;;;;;;;10.85;5.22;;;18.80;99.90;;;;;;5039833;28;20425;-49
2023/07/12 07:38:31;;;;;;;;;;;18.90;99.90;;;;;;5038084;28;20052;-52
2023/07/12 07:40:57;;;;;;;9.00;5.35;;;19.10;99.90;;;;;;5035202;28;19928;-50
2023/07/12 07:43:23;;;;;;;9.13;4.60;;;19.20;99.90;;;;;;5038072;28;20261;-51
2023/07/12 07:45:48;;;;;;;;;;;19.30;99.90;;;;;;5036396;28;20069;-54
2023/07/12 07:48:15;;;;;;;8.93;5.32;;;19.40;99.90;;;;;;5035658;28;20007;-50
2023/07/12 07:50:42;;;;;;;11.23;6.30;;;19.40;99.90;;;;;;5034608;28;20068;-49
2023/07/12 07:53:08;;;;;;;12.73;7.18;;;19.40;99.90;;;;;;5035333;28;20039;-52
2023/07/12 07:55:34;;;;;;;13.07;6.72;;;19.50;99.90;;;;;;5035022;28;20041;-54
2023/07/12 07:58:00;;;;;;;11.35;5.80;;;19.60;99.90;;;;;;5037848;28;20099;-53
2023/07/12 08:00:26;;;;;;;12.05;5.72;;;19.70;99.90;;;;;;5039873;28;20091;-50
2023/07/12 08:02:53;;;;;;;14.40;5.97;;;19.60;99.90;;;;;;5038706;28;20453;-49
2023/07/12 08:05:19;;;;;;;16.67;6.15;;;19.60;99.90;;;;;;5038504;28;20045;-50
2023/07/12 08:07:47;;;;;;;15.77;6.13;;;19.60;99.90;;;;;;5033588;28;20098;-55
2023/07/12 08:10:16;;;;;;;12.45;4.93;;;19.70;99.90;;;;;;5035472;28;20045;-52
2023/07/12 08:12:42;;;;;;;8.85;4.25;;;19.90;99.90;;;;;;5038304;28;20037;-50
2023/07/12 08:15:09;;;;;;;7.50;4.63;;;20.10;99.90;;;;;;5036085;28;20040;-53
2023/07/12 08:17:35;;;;;;;10.32;4.53;;;20.10;99.90;;;;;;5038905;28;20041;-53
2023/07/12 08:20:01;;;;;;;;;;;20.20;99.90;;;;;;5039088;28;20041;-50
2023/07/12 08:22:27;;;;;;;13.65;4.40;;;20.20;99.90;;;;;;5038282;28;19928;-51
2023/07/12 08:24:52;;;;;;;;;;;20.30;99.90;;;;;;5036825;28;20271;-52
2023/07/12 08:27:18;;;;;;;12.77;4.63;;;20.30;99.90;;;;;;5034733;28;20019;-51
2023/07/12 08:29:44;;;;;;;;;;;20.30;99.90;;;;;;5037166;28;20549;-56
2023/07/12 08:32:10;;;;;;;14.35;4.60;;;20.30;99.90;;;;;;5039234;28;19916;-53
2023/07/12 08:34:36;;;;;;;10.38;4.03;;;20.40;99.90;;;;;;5037239;28;20642;-51
2023/07/12 08:37:02;;;;;;;;;;;20.40;99.90;;;;;;5039317;28;20090;-50
2023/07/12 08:39:28;;;;;;;13.70;4.03;;;20.40;99.90;;;;;;5032659;28;19924;-55
2023/07/12 08:41:54;;;;;;;13.13;5.00;;;20.40;99.90;;;;;;5037871;28;20068;-55
2023/07/12 08:44:20;;;;;;;17.70;5.05;;;20.40;99.90;;;;;;5035769;28;20036;-50
2023/07/12 08:46:55;;;;;;;13.07;3.70;;;20.20;99.90;;;;;;5036790;28;20040;-52
2023/07/12 08:49:22;;;;;;;13.77;4.78;;;20.10;99.90;;;;;;5040165;28;20036;-54
2023/07/12 08:51:48;;;;;;;7.72;3.28;;;20.00;99.90;;;;;;5037747;28;20402;-51
2023/07/12 08:54:22;;;;;;;;;;;20.00;99.90;;;;;;5038472;28;20079;-50
2023/07/12 08:56:58;;;;;;;11.75;5.10;;;20.10;99.90;;;;;;5037176;28;19916;-53
2023/07/12 08:59:24;;;;;;;18.13;6.50;;;20.10;99.90;;;;;;5036394;28;20667;-50
2023/07/12 09:01:53;;;;;;;16.55;5.97;;;20.20;99.90;;;;;;5034989;28;20403;-52
2023/07/12 09:04:24;;;;;;;13.95;5.25;;;20.30;99.90;;;;;;5033614;28;20029;-55
2023/07/12 09:06:55;;;;;;;10.70;5.20;;;20.40;99.90;;;;;;5038448;28;20033;-51
2023/07/12 09:09:20;;;;;;;13.15;4.28;;;20.50;99.90;;;;;;5037136;28;20037;-54
2023/07/12 09:11:46;;;;;;;;;;;20.70;99.90;;;;;;5034586;28;20037;-53
2023/07/12 09:14:22;;;;;;;9.90;5.43;;;20.60;99.90;;;;;;5045052;28;19921;-52
2023/07/12 09:16:50;;;;;;;17.10;4.63;;;20.70;99.90;;;;;;5034510;28;20037;-56
2023/07/12 09:19:20;;;;;;;14.40;5.22;;;20.70;99.90;;;;;;5033751;28;20565;-51
2023/07/12 09:21:53;;;;;;;14.55;5.20;;;20.70;99.90;;;;;;5034748;28;20045;-52
2023/07/12 09:24:28;;;;;;;13.43;5.05;;;20.60;99.90;;;;;;5037154;28;20136;-54
2023/07/12 09:27:24;;;;;;;11.00;4.90;;;20.50;99.90;;;;;;5038050;28;20072;-52
2023/07/12 09:30:06;;;;;;;10.90;4.17;;;20.50;99.90;;;;;;5005354;28;20407;-54
2023/07/12 09:32:34;;;;;;;12.82;4.05;;;20.40;99.90;;;;;;5004688;28;20084;-52
2023/07/12 09:35:02;;;;;;;9.63;3.83;;;20.40;99.90;;;;;;5004711;28;20058;-51
2023/07/12 09:37:33;;;;;;;11.65;4.18;;;20.30;99.90;;;;;;4996891;28;20050;-52
2023/07/12 09:40:01;;;;;;;11.85;4.60;;;20.20;99.90;;;;;;5001962;28;20806;-51
2023/07/12 09:42:28;;;;;;;11.77;3.80;;;20.10;99.90;;;;;;4999315;28;20065;-55
2023/07/12 09:44:54;;;;;;;10.73;3.85;;;20.10;99.90;;;;;;4999226;28;20072;-56
2023/07/12 09:47:44;;;;;;;10.38;3.92;;;20.20;99.90;;;;;;5001610;28;20054;-53
2023/07/12 09:50:09;;;;;;;6.57;3.10;;;20.30;99.90;;;;;;5000833;28;20046;-55
2023/07/12 09:52:53;;;;;;;;;;;20.40;99.90;;;;;;4987466;28;20076;-50
2023/07/12 09:55:51;;;;;;;14.68;4.18;;;20.60;99.90;;;;;;4995577;28;20031;-51
2023/07/12 09:58:39;;;;;;;10.07;3.10;;;20.60;99.90;;;;;;4981607;28;20045;-52
2023/07/12 10:01:41;;;;;;;9.25;2.88;;;20.50;99.90;;;;;;4997061;28;20046;-51
2023/07/12 10:04:25;;;;;;;10.23;3.28;;;20.40;99.90;;;;;;4997068;28;20034;-51
2023/07/12 10:06:51;;;;;;;6.00;2.65;;;20.40;99.90;;;;;;5024819;28;20045;-55
2023/07/12 10:09:32;;;;;;;8.57;2.75;;;20.40;99.90;;;;;;5039468;28;20098;-51
2023/07/12 10:12:04;;;;;;;21.10;3.25;;;20.40;99.90;;;;;;5037973;28;20465;-54
2023/07/12 10:14:36;;;;;;;9.43;3.45;;;20.50;99.90;;;;;;5051260;28;20402;-50
2023/07/12 10:17:02;;;;;;;12.52;3.55;;;20.50;99.90;;;;;;5042875;28;20448;-54
2023/07/12 10:19:36;;;;;;;11.02;2.75;;;20.60;99.90;;;;;;5036938;28;20083;-53
2023/07/12 10:22:04;;;;;;;15.07;4.07;;;20.60;99.90;;;;;;5037376;28;20297;-54
2023/07/12 10:24:42;;;;;;;18.35;6.03;;;20.60;99.90;;;;;;5039518;28;20486;-54
2023/07/12 10:27:23;;;;;;;18.75;4.70;;;20.40;99.90;;;;;;5039999;28;20025;-55
2023/07/12 10:30:14;;;;;;;2.35;0.20;;;20.00;99.90;;;;;;5033832;28;20440;-53
2023/07/12 10:32:46;;;;;;;4.32;1.73;;;19.60;99.90;;;;;;5038572;28;20033;-52
2023/07/12 10:35:49;;;;;;;2.58;0.88;;;19.30;99.90;;;;;;5039060;28;20045;-53
2023/07/12 10:38:17;;;;;;;3.53;0.65;;;19.00;99.90;;;;;;5051292;28;20049;-50
2023/07/12 10:40:51;;;;;;;7.60;2.10;;;18.70;99.90;;;;;;5040369;28;20803;-51
2023/07/12 10:43:28;;;;;;;10.60;3.47;;;18.50;99.90;;;;;;5036464;28;20121;-51
2023/07/12 10:45:56;;;;;;;;;;;18.40;99.90;;;;;;5040484;28;20038;-55
2023/07/12 10:48:27;;;;;;;8.45;4.30;;;18.40;99.90;;;;;;5039309;28;20461;-55
2023/07/12 10:51:11;;;;;;;7.75;4.05;;;18.40;99.90;;;;;;5038916;28;20087;-53
2023/07/12 10:53:49;;;;;;;8.20;3.90;;;18.50;99.90;;;;;;5035690;28;20345;-54
2023/07/12 10:56:34;;;;;;;3.72;2.83;;;18.50;99.90;;;;;;5037829;28;20502;-55
2023/07/12 10:59:20;;;;;;;7.30;3.75;;;18.60;99.90;;;;;;5036226;28;20033;-54
2023/07/12 11:01:48;;;;;;;8.43;3.90;;;18.70;99.90;;;;;;5039347;28;20310;-50
2023/07/12 11:04:23;;;;;;;8.13;3.10;;;18.80;99.90;;;;;;5039672;28;20075;-54
2023/07/12 11:07:03;;;;;;;6.70;3.88;;;18.80;99.90;;;;;;5038928;28;20574;-51
2023/07/12 11:09:46;;;;;;;14.52;4.75;;;18.90;99.90;;;;;;5035863;28;20122;-54
2023/07/12 11:12:15;;;;;;;13.10;4.05;;;18.90;99.90;;;;;;5038099;28;20502;-52
2023/07/12 11:14:43;;;;;;;11.82;5.03;;;18.90;99.90;;;;;;5039362;28;20036;-55
2023/07/12 11:17:09;;;;;;;8.43;4.00;;;19.00;99.90;;;;;;5051307;28;20041;-51
2023/07/12 11:19:39;;;;;;;11.02;4.20;;;19.10;99.90;;;;;;5037232;28;20033;-54
2023/07/12 11:22:22;;;;;;;8.02;4.47;;;19.20;99.90;;;;;;5035852;28;20049;-51
2023/07/12 11:24:59;;;;;;;6.25;4.10;;;19.50;99.90;;;;;;5037799;28;20095;-54
2023/07/12 11:27:46;;;;;;;15.52;5.22;;;19.60;99.90;;;;;;5040869;28;20071;-53
2023/07/12 11:30:37;;;;;;;6.45;3.95;;;19.90;99.90;;;;;;5036775;28;20041;-53
2023/07/12 11:33:29;;;;;;;10.27;3.85;;;20.20;99.90;;;;;;5038632;28;20029;-54
2023/07/12 11:36:23;;;;;;;7.57;3.88;;;20.40;99.90;;;;;;5038790;28;20073;-55
2023/07/12 11:38:49;;;;;;;10.45;3.42;;;20.60;99.90;;;;;;5037761;28;20049;-55
2023/07/12 11:41:20;;;;;;;;;;;20.70;99.90;;;;;;5041800;28;20041;-55
2023/07/12 11:43:46;;;;;;;10.07;3.03;;;20.80;99.90;;;;;;5038585;28;20283;-51
2023/07/12 11:46:14;;;;;;;;;;;21.00;99.90;;;;;;5039855;28;20094;-54
2023/07/12 11:48:44;;;;;;;14.15;2.88;;;21.10;99.90;;;;;;5038065;28;19916;-53
2023/07/12 11:51:35;;;;;;;9.85;3.60;;;21.10;99.90;;;;;;5036743;28;20120;-55
2023/07/12 11:54:17;;;;;;;12.43;3.60;;;21.20;99.90;;;;;;5038983;28;20025;-56
2023/07/12 11:56:44;;;;;;;8.18;2.53;;;21.30;99.90;;;;;;5040451;28;20418;-54
2023/07/12 11:59:19;;;;;;;11.20;2.47;;;21.30;99.90;;;;;;5037428;28;20056;-52
2023/07/12 12:01:46;;;;;;;10.68;2.80;;;21.30;99.90;;;;;;5037365;28;20049;-53
2023/07/12 12:04:20;;;;;;;7.78;3.47;;;21.30;99.90;;;;;;5035736;28;20570;-52
2023/07/12 12:06:46;;;;;;;3.65;2.38;;;21.10;99.90;;;;;;5033924;28;20033;-54
2023/07/12 12:09:11;;;;;;;;;;;21.10;99.90;;;;;;5037165;28;20118;-52
2023/07/12 12:11:39;;;;;;;6.72;3.00;;;21.00;99.90;;;;;;5037720;28;19923;-51
2023/07/12 12:14:17;;;;;;;8.75;3.13;;;20.90;99.90;;;;;;5035249;28;20068;-52
2023/07/12 12:16:52;;;;;;;6.93;2.05;;;20.90;99.90;;;;;;5036811;28;20037;-53
2023/07/12 12:19:18;;;;;;;8.35;2.40;;;21.00;99.90;;;;;;5035810;28;20033;-55
2023/07/12 12:21:49;;;;;;;8.65;2.97;;;21.10;99.90;;;;;;5047054;28;20075;-54
2023/07/12 12:24:18;;;;;;;6.60;2.58;;;21.10;99.90;;;;;;5034304;28;20158;-54
2023/07/12 12:26:45;;;;;;;6.50;2.60;;;21.10;99.90;;;;;;5035882;28;20034;-52
2023/07/12 12:29:22;;;;;;;7.00;3.63;;;21.00;99.90;;;;;;5036977;28;20075;-55
2023/07/12 12:31:56;;;;;;;8.15;2.95;;;21.00;99.90;;;;;;5035306;28;20061;-50
2023/07/12 12:34:25;;;;;;;7.05;2.88;;;20.80;99.90;;;;;;5034324;28;20060;-52
2023/07/12 12:36:58;;;;;;;15.27;3.97;;;20.70;99.90;;;;;;5039176;28;20069;-52
2023/07/12 12:39:24;;;;;;;6.22;2.88;;;20.60;99.90;;;;;;5037354;28;20025;-53
2023/07/12 12:41:52;;;;;;;;;;;20.60;99.90;;;;;;5035186;28;20139;-55
2023/07/12 12:44:18;;;;;;;4.45;1.73;;;20.70;99.90;;;;;;5036660;28;19917;-50
2023/07/12 12:46:54;;;;;;;9.48;2.13;;;20.80;99.90;;;;;;5037553;28;20069;-54
2023/07/12 12:49:26;;;;;;;5.80;1.73;;;20.90;99.90;;;;;;5034973;28;20033;-55
2023/07/12 12:51:55;;;;;;;8.25;2.13;;;21.10;99.90;;;;;;5038091;28;20115;-51
2023/07/12 12:54:21;;;;;;;5.28;1.75;;;21.30;99.90;;;;;;5033253;28;20042;-53
2023/07/12 12:56:47;;;;;;;4.03;1.70;;;21.50;99.90;;;;;;5038023;28;20051;-55
2023/07/12 12:59:15;;;;;;;4.28;1.48;;;21.50;99.90;;;;;;5035357;28;20049;-50
2023/07/12 13:01:42;;;;;;;5.82;2.00;;;21.60;99.90;;;;;;5038040;28;20556;-54